sensor_id;sensor_type;location;lat;lon;timestamp;temperature;humidity
7958;DHT22;4024;52.172;5.378;2024-02-26T00:02:23;8.40;99.90
7958;DHT22;4024;52.172;5.378;2024-02-26T00:04:48;8.40;99.90
7958;DHT22;4024;52.172;5.378;2024-02-26T00:07:15;8.50;99.90
7958;DHT22;4024;52.172;5.378;2024-02-26T00:09:41;8.40;99.90
7958;DHT22;4024;52.172;5.378;2024-02-26T00:12:06;8.30;99.90
7958;DHT22;4024;52.172;5.378;2024-02-26T00:14:32;8.30;99.90
7958;DHT22;4024;52.172;5.378;2024-02-26T00:16:58;8.30;99.90
7958;DHT22;4024;52.172;5.378;2024-02-26T00:19:23;8.30;99.90
7958;DHT22;4024;52.172;5.378;2024-02-26T00:21:49;8.20;99.90
7958;DHT22;4024;52.172;5.378;2024-02-26T00:24:14;8.30;99.90
7958;DHT22;4024;52.172;5.378;2024-02-26T00:26:40;8.20;99.90
7958;DHT22;4024;52.172;5.378;2024-02-26T00:29:05;8.20;99.90
7958;DHT22;4024;52.172;5.378;2024-02-26T00:31:31;8.20;99.90
7958;DHT22;4024;52.172;5.378;2024-02-26T00:33:57;8.20;99.90
7958;DHT22;4024;52.172;5.378;2024-02-26T00:36:23;8.20;99.90
7958;DHT22;4024;52.172;5.378;2024-02-26T00:38:49;8.20;99.90
7958;DHT22;4024;52.172;5.378;2024-02-26T00:41:20;8.20;99.90
7958;DHT22;4024;52.172;5.378;2024-02-26T00:43:46;8.20;99.90
7958;DHT22;4024;52.172;5.378;2024-02-26T00:46:12;8.10;99.90
7958;DHT22;4024;52.172;5.378;2024-02-26T00:48:38;8.10;99.90
7958;DHT22;4024;52.172;5.378;2024-02-26T00:51:04;8.10;99.90
7958;DHT22;4024;52.172;5.378;2024-02-26T00:53:33;8.10;99.90
7958;DHT22;4024;52.172;5.378;2024-02-26T00:55:59;8.10;99.90
7958;DHT22;4024;52.172;5.378;2024-02-26T00:58:25;8.10;99.90
7958;DHT22;4024;52.172;5.378;2024-02-26T01:00:50;8.10;99.90
7958;DHT22;4024;52.172;5.378;2024-02-26T01:03:17;8.00;99.90
7958;DHT22;4024;52.172;5.378;2024-02-26T01:05:43;8.00;99.90
7958;DHT22;4024;52.172;5.378;2024-02-26T01:08:08;8.00;99.90
7958;DHT22;4024;52.172;5.378;2024-02-26T01:10:34;8.00;99.90
7958;DHT22;4024;52.172;5.378;2024-02-26T01:13:00;7.90;99.90
7958;DHT22;4024;52.172;5.378;2024-02-26T01:15:26;7.80;99.90
7958;DHT22;4024;52.172;5.378;2024-02-26T01:17:52;7.90;99.90
7958;DHT22;4024;52.172;5.378;2024-02-26T01:20:18;7.90;99.90
7958;DHT22;4024;52.172;5.378;2024-02-26T01:22:44;7.80;99.90
7958;DHT22;4024;52.172;5.378;2024-02-26T01:25:10;7.90;99.90
7958;DHT22;4024;52.172;5.378;2024-02-26T01:27:36;7.80;99.90
7958;DHT22;4024;52.172;5.378;2024-02-26T01:30:06;7.80;99.90
7958;DHT22;4024;52.172;5.378;2024-02-26T01:32:32;7.80;99.90
7958;DHT22;4024;52.172;5.378;2024-02-26T01:34:57;7.80;99.90
7958;DHT22;4024;52.172;5.378;2024-02-26T01:37:23;7.80;99.90
7958;DHT22;4024;52.172;5.378;2024-02-26T01:39:49;7.90;99.90
7958;DHT22;4024;52.172;5.378;2024-02-26T01:42:14;7.80;99.90
7958;DHT22;4024;52.172;5.378;2024-02-26T01:44:40;7.70;99.90
7958;DHT22;4024;52.172;5.378;2024-02-26T01:47:07;7.80;99.90
7958;DHT22;4024;52.172;5.378;2024-02-26T01:49:36;7.70;99.90
7958;DHT22;4024;52.172;5.378;2024-02-26T01:52:03;7.70;99.90
7958;DHT22;4024;52.172;5.378;2024-02-26T01:54:30;7.70;99.90
7958;DHT22;4024;52.172;5.378;2024-02-26T01:56:56;7.70;99.90
7958;DHT22;4024;52.172;5.378;2024-02-26T01:59:22;7.70;99.90
7958;DHT22;4024;52.172;5.378;2024-02-26T02:01:52;7.70;99.90
7958;DHT22;4024;52.172;5.378;2024-02-26T02:04:20;7.70;99.90
7958;DHT22;4024;52.172;5.378;2024-02-26T02:06:46;7.70;99.90
7958;DHT22;4024;52.172;5.378;2024-02-26T02:09:12;7.70;99.90
7958;DHT22;4024;52.172;5.378;2024-02-26T02:11:38;7.70;99.90
7958;DHT22;4024;52.172;5.378;2024-02-26T02:14:04;7.70;99.90
7958;DHT22;4024;52.172;5.378;2024-02-26T02:16:29;7.70;99.90
7958;DHT22;4024;52.172;5.378;2024-02-26T02:18:55;7.70;99.90
7958;DHT22;4024;52.172;5.378;2024-02-26T02:21:21;7.70;99.90
7958;DHT22;4024;52.172;5.378;2024-02-26T02:23:46;7.70;99.90
7958;DHT22;4024;52.172;5.378;2024-02-26T02:26:15;7.70;99.90
7958;DHT22;4024;52.172;5.378;2024-02-26T02:28:41;7.70;99.90
7958;DHT22;4024;52.172;5.378;2024-02-26T02:31:07;7.70;99.90
7958;DHT22;4024;52.172;5.378;2024-02-26T02:33:34;7.70;99.90
7958;DHT22;4024;52.172;5.378;2024-02-26T02:36:00;7.70;99.90
7958;DHT22;4024;52.172;5.378;2024-02-26T02:38:25;7.70;99.90
7958;DHT22;4024;52.172;5.378;2024-02-26T02:40:52;7.70;99.90
7958;DHT22;4024;52.172;5.378;2024-02-26T02:43:17;7.70;99.90
7958;DHT22;4024;52.172;5.378;2024-02-26T02:45:43;7.70;99.90
7958;DHT22;4024;52.172;5.378;2024-02-26T02:48:09;7.70;99.90
7958;DHT22;4024;52.172;5.378;2024-02-26T02:50:34;7.70;99.90
7958;DHT22;4024;52.172;5.378;2024-02-26T02:53:03;7.70;99.90
7958;DHT22;4024;52.172;5.378;2024-02-26T02:55:30;7.80;99.90
7958;DHT22;4024;52.172;5.378;2024-02-26T02:57:55;7.80;99.90
7958;DHT22;4024;52.172;5.378;2024-02-26T03:00:21;7.90;99.90
7958;DHT22;4024;52.172;5.378;2024-02-26T03:02:50;7.80;99.90
7958;DHT22;4024;52.172;5.378;2024-02-26T03:05:16;7.70;99.90
7958;DHT22;4024;52.172;5.378;2024-02-26T03:07:41;7.80;99.90
7958;DHT22;4024;52.172;5.378;2024-02-26T03:10:07;7.80;99.90
7958;DHT22;4024;52.172;5.378;2024-02-26T03:12:34;7.80;99.90
7958;DHT22;4024;52.172;5.378;2024-02-26T03:15:00;7.90;99.90
7958;DHT22;4024;52.172;5.378;2024-02-26T03:17:28;7.80;99.90
7958;DHT22;4024;52.172;5.378;2024-02-26T03:19:54;7.80;99.90
7958;DHT22;4024;52.172;5.378;2024-02-26T03:22:20;7.90;99.90
7958;DHT22;4024;52.172;5.378;2024-02-26T03:24:47;7.80;99.90
7958;DHT22;4024;52.172;5.378;2024-02-26T03:27:12;7.70;99.90
7958;DHT22;4024;52.172;5.378;2024-02-26T03:29:38;7.80;99.90
7958;DHT22;4024;52.172;5.378;2024-02-26T03:32:05;7.70;99.90
7958;DHT22;4024;52.172;5.378;2024-02-26T03:34:31;7.80;99.90
7958;DHT22;4024;52.172;5.378;2024-02-26T03:36:59;7.80;99.90
7958;DHT22;4024;52.172;5.378;2024-02-26T03:39:25;7.80;99.90
7958;DHT22;4024;52.172;5.378;2024-02-26T03:41:51;7.80;99.90
7958;DHT22;4024;52.172;5.378;2024-02-26T03:44:16;7.80;99.90
7958;DHT22;4024;52.172;5.378;2024-02-26T03:46:42;7.80;99.90
7958;DHT22;4024;52.172;5.378;2024-02-26T03:49:10;7.70;99.90
7958;DHT22;4024;52.172;5.378;2024-02-26T03:51:36;7.80;99.90
7958;DHT22;4024;52.172;5.378;2024-02-26T03:54:03;7.80;99.90
7958;DHT22;4024;52.172;5.378;2024-02-26T03:56:29;7.80;99.90
7958;DHT22;4024;52.172;5.378;2024-02-26T03:58:55;7.80;99.90
7958;DHT22;4024;52.172;5.378;2024-02-26T04:01:20;7.80;99.90
7958;DHT22;4024;52.172;5.378;2024-02-26T04:03:46;7.80;99.90
7958;DHT22;4024;52.172;5.378;2024-02-26T04:06:12;7.80;99.90
7958;DHT22;4024;52.172;5.378;2024-02-26T04:08:41;7.80;99.90
7958;DHT22;4024;52.172;5.378;2024-02-26T04:11:07;7.80;99.90
7958;DHT22;4024;52.172;5.378;2024-02-26T04:13:36;7.80;99.90
7958;DHT22;4024;52.172;5.378;2024-02-26T04:16:04;7.80;99.90
7958;DHT22;4024;52.172;5.378;2024-02-26T04:18:29;7.70;99.90
7958;DHT22;4024;52.172;5.378;2024-02-26T04:20:55;7.80;99.90
7958;DHT22;4024;52.172;5.378;2024-02-26T04:23:22;7.80;99.90
7958;DHT22;4024;52.172;5.378;2024-02-26T04:25:47;7.70;99.90
7958;DHT22;4024;52.172;5.378;2024-02-26T04:28:13;7.80;99.90
7958;DHT22;4024;52.172;5.378;2024-02-26T04:30:39;7.80;99.90
7958;DHT22;4024;52.172;5.378;2024-02-26T04:33:04;7.70;99.90
7958;DHT22;4024;52.172;5.378;2024-02-26T04:35:30;7.70;99.90
7958;DHT22;4024;52.172;5.378;2024-02-26T04:37:56;7.70;99.90
7958;DHT22;4024;52.172;5.378;2024-02-26T04:40:22;7.70;99.90
7958;DHT22;4024;52.172;5.378;2024-02-26T04:42:48;7.80;99.90
7958;DHT22;4024;52.172;5.378;2024-02-26T04:45:13;7.70;99.90
7958;DHT22;4024;52.172;5.378;2024-02-26T04:47:39;7.80;99.90
7958;DHT22;4024;52.172;5.378;2024-02-26T04:50:05;7.70;99.90
7958;DHT22;4024;52.172;5.378;2024-02-26T04:52:31;7.80;99.90
7958;DHT22;4024;52.172;5.378;2024-02-26T04:54:56;7.80;99.90
7958;DHT22;4024;52.172;5.378;2024-02-26T04:57:22;7.80;99.90
7958;DHT22;4024;52.172;5.378;2024-02-26T04:59:47;7.70;99.90
7958;DHT22;4024;52.172;5.378;2024-02-26T05:02:13;7.70;99.90
7958;DHT22;4024;52.172;5.378;2024-02-26T05:04:39;7.70;99.90
7958;DHT22;4024;52.172;5.378;2024-02-26T05:07:05;7.70;99.90
7958;DHT22;4024;52.172;5.378;2024-02-26T05:09:31;7.70;99.90
7958;DHT22;4024;52.172;5.378;2024-02-26T05:11:57;7.70;99.90
7958;DHT22;4024;52.172;5.378;2024-02-26T05:14:22;7.80;99.90
7958;DHT22;4024;52.172;5.378;2024-02-26T05:16:48;7.70;99.90
7958;DHT22;4024;52.172;5.378;2024-02-26T05:19:14;7.70;99.90
7958;DHT22;4024;52.172;5.378;2024-02-26T05:21:39;7.80;99.90
7958;DHT22;4024;52.172;5.378;2024-02-26T05:24:06;7.80;99.90
7958;DHT22;4024;52.172;5.378;2024-02-26T05:26:31;7.70;99.90
7958;DHT22;4024;52.172;5.378;2024-02-26T05:28:57;7.90;99.90
7958;DHT22;4024;52.172;5.378;2024-02-26T05:31:25;7.70;99.90
7958;DHT22;4024;52.172;5.378;2024-02-26T05:33:51;7.70;99.90
7958;DHT22;4024;52.172;5.378;2024-02-26T05:36:21;7.70;99.90
7958;DHT22;4024;52.172;5.378;2024-02-26T05:38:48;7.80;99.90
7958;DHT22;4024;52.172;5.378;2024-02-26T05:41:17;7.70;99.90
7958;DHT22;4024;52.172;5.378;2024-02-26T05:43:51;7.70;99.90
7958;DHT22;4024;52.172;5.378;2024-02-26T05:46:17;7.70;99.90
7958;DHT22;4024;52.172;5.378;2024-02-26T05:48:47;7.70;99.90
7958;DHT22;4024;52.172;5.378;2024-02-26T05:51:12;7.70;99.90
7958;DHT22;4024;52.172;5.378;2024-02-26T05:53:38;7.70;99.90
7958;DHT22;4024;52.172;5.378;2024-02-26T05:56:04;7.70;99.90
7958;DHT22;4024;52.172;5.378;2024-02-26T05:58:29;7.70;99.90
7958;DHT22;4024;52.172;5.378;2024-02-26T06:00:55;7.70;99.90
7958;DHT22;4024;52.172;5.378;2024-02-26T06:03:20;7.70;99.90
7958;DHT22;4024;52.172;5.378;2024-02-26T06:05:46;7.70;99.90
7958;DHT22;4024;52.172;5.378;2024-02-26T06:08:12;7.60;99.90
7958;DHT22;4024;52.172;5.378;2024-02-26T06:10:37;7.70;99.90
7958;DHT22;4024;52.172;5.378;2024-02-26T06:13:04;7.70;99.90
7958;DHT22;4024;52.172;5.378;2024-02-26T06:15:30;7.70;99.90
7958;DHT22;4024;52.172;5.378;2024-02-26T06:17:55;7.70;99.90
7958;DHT22;4024;52.172;5.378;2024-02-26T06:20:21;7.70;99.90
7958;DHT22;4024;52.172;5.378;2024-02-26T06:22:47;7.70;99.90
7958;DHT22;4024;52.172;5.378;2024-02-26T06:25:12;7.70;99.90
7958;DHT22;4024;52.172;5.378;2024-02-26T06:27:38;7.70;99.90
7958;DHT22;4024;52.172;5.378;2024-02-26T06:30:04;7.70;99.90
7958;DHT22;4024;52.172;5.378;2024-02-26T06:32:30;7.70;99.90
7958;DHT22;4024;52.172;5.378;2024-02-26T06:34:55;7.70;99.90
7958;DHT22;4024;52.172;5.378;2024-02-26T06:37:21;7.70;99.90
7958;DHT22;4024;52.172;5.378;2024-02-26T06:39:47;7.70;99.90
7958;DHT22;4024;52.172;5.378;2024-02-26T06:42:13;7.70;99.90
7958;DHT22;4024;52.172;5.378;2024-02-26T06:44:39;7.70;99.90
7958;DHT22;4024;52.172;5.378;2024-02-26T06:47:05;7.70;99.90
7958;DHT22;4024;52.172;5.378;2024-02-26T06:49:31;7.80;99.90
7958;DHT22;4024;52.172;5.378;2024-02-26T06:51:56;7.80;99.90
7958;DHT22;4024;52.172;5.378;2024-02-26T06:54:22;7.80;99.90
7958;DHT22;4024;52.172;5.378;2024-02-26T06:56:48;7.80;99.90
7958;DHT22;4024;52.172;5.378;2024-02-26T06:59:13;7.80;99.90
7958;DHT22;4024;52.172;5.378;2024-02-26T07:01:42;7.80;99.90
7958;DHT22;4024;52.172;5.378;2024-02-26T07:04:08;7.70;99.90
7958;DHT22;4024;52.172;5.378;2024-02-26T07:06:35;7.70;99.90
7958;DHT22;4024;52.172;5.378;2024-02-26T07:09:01;7.70;99.90
7958;DHT22;4024;52.172;5.378;2024-02-26T07:11:26;7.70;99.90
7958;DHT22;4024;52.172;5.378;2024-02-26T07:13:52;7.70;99.90
7958;DHT22;4024;52.172;5.378;2024-02-26T07:16:18;7.70;99.90
7958;DHT22;4024;52.172;5.378;2024-02-26T07:18:43;7.60;99.90
7958;DHT22;4024;52.172;5.378;2024-02-26T07:21:09;7.60;99.90
7958;DHT22;4024;52.172;5.378;2024-02-26T07:23:35;7.60;99.90
7958;DHT22;4024;52.172;5.378;2024-02-26T07:26:00;7.60;99.90
7958;DHT22;4024;52.172;5.378;2024-02-26T07:28:26;7.60;99.90
7958;DHT22;4024;52.172;5.378;2024-02-26T07:30:51;7.60;99.90
7958;DHT22;4024;52.172;5.378;2024-02-26T07:33:17;7.60;99.90
7958;DHT22;4024;52.172;5.378;2024-02-26T07:35:42;7.60;99.90
7958;DHT22;4024;52.172;5.378;2024-02-26T07:38:08;7.60;99.90
7958;DHT22;4024;52.172;5.378;2024-02-26T07:40:34;7.60;99.90
7958;DHT22;4024;52.172;5.378;2024-02-26T07:42:59;7.60;99.90
7958;DHT22;4024;52.172;5.378;2024-02-26T07:45:25;7.60;99.90
7958;DHT22;4024;52.172;5.378;2024-02-26T07:47:50;7.60;99.90
7958;DHT22;4024;52.172;5.378;2024-02-26T07:50:17;7.60;99.90
7958;DHT22;4024;52.172;5.378;2024-02-26T07:52:43;7.50;99.90
7958;DHT22;4024;52.172;5.378;2024-02-26T07:55:10;7.70;99.90
7958;DHT22;4024;52.172;5.378;2024-02-26T07:57:35;7.50;99.90
7958;DHT22;4024;52.172;5.378;2024-02-26T08:00:02;7.60;99.90
7958;DHT22;4024;52.172;5.378;2024-02-26T08:02:28;7.60;99.90
7958;DHT22;4024;52.172;5.378;2024-02-26T08:04:54;7.60;99.90
7958;DHT22;4024;52.172;5.378;2024-02-26T08:07:19;7.50;99.90
7958;DHT22;4024;52.172;5.378;2024-02-26T08:09:46;7.60;99.90
7958;DHT22;4024;52.172;5.378;2024-02-26T08:12:12;7.50;99.90
7958;DHT22;4024;52.172;5.378;2024-02-26T08:14:38;7.60;99.90
7958;DHT22;4024;52.172;5.378;2024-02-26T08:17:04;7.60;99.90
7958;DHT22;4024;52.172;5.378;2024-02-26T08:19:29;7.60;99.90
7958;DHT22;4024;52.172;5.378;2024-02-26T08:21:55;7.60;99.90
7958;DHT22;4024;52.172;5.378;2024-02-26T08:24:20;7.50;99.90
7958;DHT22;4024;52.172;5.378;2024-02-26T08:26:46;7.60;99.90
7958;DHT22;4024;52.172;5.378;2024-02-26T08:29:11;7.60;99.90
7958;DHT22;4024;52.172;5.378;2024-02-26T08:31:37;7.70;99.90
7958;DHT22;4024;52.172;5.378;2024-02-26T08:34:03;7.60;99.90
7958;DHT22;4024;52.172;5.378;2024-02-26T08:36:31;7.60;99.90
7958;DHT22;4024;52.172;5.378;2024-02-26T08:38:57;7.60;99.90
7958;DHT22;4024;52.172;5.378;2024-02-26T08:41:22;7.60;99.90
7958;DHT22;4024;52.172;5.378;2024-02-26T08:43:48;7.70;99.90
7958;DHT22;4024;52.172;5.378;2024-02-26T08:46:14;7.60;99.90
7958;DHT22;4024;52.172;5.378;2024-02-26T08:48:40;7.70;99.90
7958;DHT22;4024;52.172;5.378;2024-02-26T08:51:09;7.70;99.90
7958;DHT22;4024;52.172;5.378;2024-02-26T08:53:36;7.70;99.90
7958;DHT22;4024;52.172;5.378;2024-02-26T08:56:02;7.70;99.90
7958;DHT22;4024;52.172;5.378;2024-02-26T08:58:28;7.70;99.90
7958;DHT22;4024;52.172;5.378;2024-02-26T09:00:54;7.80;99.90
7958;DHT22;4024;52.172;5.378;2024-02-26T09:03:19;7.80;99.90
7958;DHT22;4024;52.172;5.378;2024-02-26T09:05:45;7.80;99.90
7958;DHT22;4024;52.172;5.378;2024-02-26T09:08:10;7.70;99.90
7958;DHT22;4024;52.172;5.378;2024-02-26T09:10:36;7.70;99.90
7958;DHT22;4024;52.172;5.378;2024-02-26T09:13:02;7.80;99.90
7958;DHT22;4024;52.172;5.378;2024-02-26T09:15:27;7.80;99.90
7958;DHT22;4024;52.172;5.378;2024-02-26T09:17:53;7.70;99.90
7958;DHT22;4024;52.172;5.378;2024-02-26T09:20:19;7.80;99.90
7958;DHT22;4024;52.172;5.378;2024-02-26T09:22:46;7.80;99.90
7958;DHT22;4024;52.172;5.378;2024-02-26T09:25:12;7.80;99.90
7958;DHT22;4024;52.172;5.378;2024-02-26T09:27:38;7.80;99.90
7958;DHT22;4024;52.172;5.378;2024-02-26T09:30:04;7.70;99.90
7958;DHT22;4024;52.172;5.378;2024-02-26T09:32:30;7.80;99.90
7958;DHT22;4024;52.172;5.378;2024-02-26T09:34:56;7.80;99.90
7958;DHT22;4024;52.172;5.378;2024-02-26T09:37:22;7.70;99.90
7958;DHT22;4024;52.172;5.378;2024-02-26T09:39:47;7.70;99.90
7958;DHT22;4024;52.172;5.378;2024-02-26T09:42:13;7.70;99.90
7958;DHT22;4024;52.172;5.378;2024-02-26T09:44:40;7.70;99.90
7958;DHT22;4024;52.172;5.378;2024-02-26T09:47:10;7.70;99.90
7958;DHT22;4024;52.172;5.378;2024-02-26T09:49:36;7.70;99.90
7958;DHT22;4024;52.172;5.378;2024-02-26T09:52:04;7.60;99.90
7958;DHT22;4024;52.172;5.378;2024-02-26T09:54:31;7.60;99.90
7958;DHT22;4024;52.172;5.378;2024-02-26T09:57:00;7.60;99.90
7958;DHT22;4024;52.172;5.378;2024-02-26T09:59:29;7.70;99.90
7958;DHT22;4024;52.172;5.378;2024-02-26T10:01:56;7.60;99.90
7958;DHT22;4024;52.172;5.378;2024-02-26T10:04:23;7.60;99.90
7958;DHT22;4024;52.172;5.378;2024-02-26T10:06:50;7.60;99.90
7958;DHT22;4024;52.172;5.378;2024-02-26T10:09:16;7.60;99.90
7958;DHT22;4024;52.172;5.378;2024-02-26T10:11:43;7.70;99.90
7958;DHT22;4024;52.172;5.378;2024-02-26T10:14:09;7.70;99.90
7958;DHT22;4024;52.172;5.378;2024-02-26T10:16:35;7.70;99.90
7958;DHT22;4024;52.172;5.378;2024-02-26T10:19:00;7.70;99.90
7958;DHT22;4024;52.172;5.378;2024-02-26T10:21:26;7.70;99.90
7958;DHT22;4024;52.172;5.378;2024-02-26T10:23:52;7.70;99.90
7958;DHT22;4024;52.172;5.378;2024-02-26T10:26:17;7.70;99.90
7958;DHT22;4024;52.172;5.378;2024-02-26T10:28:44;7.70;99.90
7958;DHT22;4024;52.172;5.378;2024-02-26T10:31:10;7.70;99.90
7958;DHT22;4024;52.172;5.378;2024-02-26T10:33:37;7.70;99.90
7958;DHT22;4024;52.172;5.378;2024-02-26T10:36:04;7.70;99.90
7958;DHT22;4024;52.172;5.378;2024-02-26T10:38:31;7.70;99.90
7958;DHT22;4024;52.172;5.378;2024-02-26T10:40:57;7.70;99.90
7958;DHT22;4024;52.172;5.378;2024-02-26T10:43:23;7.80;99.90
7958;DHT22;4024;52.172;5.378;2024-02-26T10:45:48;7.80;99.90
7958;DHT22;4024;52.172;5.378;2024-02-26T10:48:14;7.70;99.90
7958;DHT22;4024;52.172;5.378;2024-02-26T10:50:41;7.80;99.90
7958;DHT22;4024;52.172;5.378;2024-02-26T10:53:36;7.80;99.90
7958;DHT22;4024;52.172;5.378;2024-02-26T10:56:03;7.80;99.90
7958;DHT22;4024;52.172;5.378;2024-02-26T10:58:31;7.70;99.90
7958;DHT22;4024;52.172;5.378;2024-02-26T11:00:57;7.80;99.90
7958;DHT22;4024;52.172;5.378;2024-02-26T11:03:23;7.80;99.90
7958;DHT22;4024;52.172;5.378;2024-02-26T11:05:50;7.80;99.90
7958;DHT22;4024;52.172;5.378;2024-02-26T11:08:18;7.80;99.90
7958;DHT22;4024;52.172;5.378;2024-02-26T11:10:47;7.80;99.90
7958;DHT22;4024;52.172;5.378;2024-02-26T11:13:15;7.80;99.90
7958;DHT22;4024;52.172;5.378;2024-02-26T11:15:43;7.80;99.90
7958;DHT22;4024;52.172;5.378;2024-02-26T11:18:10;7.80;99.90
7958;DHT22;4024;52.172;5.378;2024-02-26T11:20:38;8.00;99.90
7958;DHT22;4024;52.172;5.378;2024-02-26T11:23:07;7.80;99.90
7958;DHT22;4024;52.172;5.378;2024-02-26T11:25:35;7.90;99.90
7958;DHT22;4024;52.172;5.378;2024-02-26T11:28:09;7.90;99.90
7958;DHT22;4024;52.172;5.378;2024-02-26T11:30:38;7.80;99.90
7958;DHT22;4024;52.172;5.378;2024-02-26T11:33:09;7.90;99.90
7958;DHT22;4024;52.172;5.378;2024-02-26T11:35:38;7.90;99.90
7958;DHT22;4024;52.172;5.378;2024-02-26T11:38:04;7.90;99.90
7958;DHT22;4024;52.172;5.378;2024-02-26T11:40:32;7.90;99.90
7958;DHT22;4024;52.172;5.378;2024-02-26T11:42:58;7.90;99.90
7958;DHT22;4024;52.172;5.378;2024-02-26T11:48:15;7.90;99.90
7958;DHT22;4024;52.172;5.378;2024-02-26T11:50:42;7.90;99.90
7958;DHT22;4024;52.172;5.378;2024-02-26T11:53:32;8.00;99.90
7958;DHT22;4024;52.172;5.378;2024-02-26T11:58:45;8.00;99.90
7958;DHT22;4024;52.172;5.378;2024-02-26T12:04:26;7.90;99.90
7958;DHT22;4024;52.172;5.378;2024-02-26T12:06:56;7.90;99.90
7958;DHT22;4024;52.172;5.378;2024-02-26T12:11:57;7.90;99.90
7958;DHT22;4024;52.172;5.378;2024-02-26T12:14:26;8.00;99.90
7958;DHT22;4024;52.172;5.378;2024-02-26T12:16:52;8.00;99.90
7958;DHT22;4024;52.172;5.378;2024-02-26T12:19:18;8.00;99.90
7958;DHT22;4024;52.172;5.378;2024-02-26T12:21:44;8.00;99.90
7958;DHT22;4024;52.172;5.378;2024-02-26T12:24:11;8.00;99.90
7958;DHT22;4024;52.172;5.378;2024-02-26T12:26:38;8.00;99.90
7958;DHT22;4024;52.172;5.378;2024-02-26T12:29:04;8.10;99.90
7958;DHT22;4024;52.172;5.378;2024-02-26T12:31:30;8.10;99.90
7958;DHT22;4024;52.172;5.378;2024-02-26T12:33:56;8.10;99.90
7958;DHT22;4024;52.172;5.378;2024-02-26T12:36:22;8.20;99.90
7958;DHT22;4024;52.172;5.378;2024-02-26T12:38:51;8.10;99.90
7958;DHT22;4024;52.172;5.378;2024-02-26T12:41:17;8.20;99.90
7958;DHT22;4024;52.172;5.378;2024-02-26T12:43:43;8.20;99.90
7958;DHT22;4024;52.172;5.378;2024-02-26T12:46:09;8.20;99.90
7958;DHT22;4024;52.172;5.378;2024-02-26T12:48:36;8.20;99.90
7958;DHT22;4024;52.172;5.378;2024-02-26T12:51:02;8.30;99.90
7958;DHT22;4024;52.172;5.378;2024-02-26T12:53:27;8.30;99.90
7958;DHT22;4024;52.172;5.378;2024-02-26T12:55:56;8.30;99.90
7958;DHT22;4024;52.172;5.378;2024-02-26T12:58:22;8.30;99.90
7958;DHT22;4024;52.172;5.378;2024-02-26T13:00:54;8.40;99.90
7958;DHT22;4024;52.172;5.378;2024-02-26T13:03:20;8.40;99.90
7958;DHT22;4024;52.172;5.378;2024-02-26T13:05:46;8.40;99.90
7958;DHT22;4024;52.172;5.378;2024-02-26T13:08:19;8.40;99.90
7958;DHT22;4024;52.172;5.378;2024-02-26T13:10:46;8.60;99.90
7958;DHT22;4024;52.172;5.378;2024-02-26T13:13:14;8.40;99.90
7958;DHT22;4024;52.172;5.378;2024-02-26T13:15:41;8.40;99.90
7958;DHT22;4024;52.172;5.378;2024-02-26T13:18:11;8.50;99.90
7958;DHT22;4024;52.172;5.378;2024-02-26T13:20:37;8.50;99.90
7958;DHT22;4024;52.172;5.378;2024-02-26T13:23:07;8.50;99.90
7958;DHT22;4024;52.172;5.378;2024-02-26T13:25:33;8.50;99.90
7958;DHT22;4024;52.172;5.378;2024-02-26T13:28:09;8.50;99.90
7958;DHT22;4024;52.172;5.378;2024-02-26T13:30:35;8.50;99.90
7958;DHT22;4024;52.172;5.378;2024-02-26T13:33:12;8.50;99.90
7958;DHT22;4024;52.172;5.378;2024-02-26T13:35:39;8.60;99.90
7958;DHT22;4024;52.172;5.378;2024-02-26T13:38:05;8.60;99.90
7958;DHT22;4024;52.172;5.378;2024-02-26T13:40:34;8.60;99.90
7958;DHT22;4024;52.172;5.378;2024-02-26T13:43:00;8.60;99.90
7958;DHT22;4024;52.172;5.378;2024-02-26T13:45:26;8.60;99.90
7958;DHT22;4024;52.172;5.378;2024-02-26T13:47:52;8.60;99.90
7958;DHT22;4024;52.172;5.378;2024-02-26T13:50:18;8.60;99.90
7958;DHT22;4024;52.172;5.378;2024-02-26T13:52:47;8.70;99.90
7958;DHT22;4024;52.172;5.378;2024-02-26T13:55:18;8.70;99.90
7958;DHT22;4024;52.172;5.378;2024-02-26T13:57:44;8.70;99.90
7958;DHT22;4024;52.172;5.378;2024-02-26T14:00:10;8.70;99.90
7958;DHT22;4024;52.172;5.378;2024-02-26T14:02:36;8.70;99.90
7958;DHT22;4024;52.172;5.378;2024-02-26T14:05:02;8.80;99.90
7958;DHT22;4024;52.172;5.378;2024-02-26T14:07:30;8.80;99.90
7958;DHT22;4024;52.172;5.378;2024-02-26T14:09:59;8.80;99.90
7958;DHT22;4024;52.172;5.378;2024-02-26T14:12:25;8.80;99.90
7958;DHT22;4024;52.172;5.378;2024-02-26T14:14:50;8.80;99.90
7958;DHT22;4024;52.172;5.378;2024-02-26T14:17:18;8.90;99.90
7958;DHT22;4024;52.172;5.378;2024-02-26T14:19:44;8.90;99.90
7958;DHT22;4024;52.172;5.378;2024-02-26T14:22:14;8.90;99.90
7958;DHT22;4024;52.172;5.378;2024-02-26T14:24:41;8.90;99.90
7958;DHT22;4024;52.172;5.378;2024-02-26T14:27:12;8.90;99.90
7958;DHT22;4024;52.172;5.378;2024-02-26T14:29:42;8.90;99.90
7958;DHT22;4024;52.172;5.378;2024-02-26T14:32:09;8.90;99.90
7958;DHT22;4024;52.172;5.378;2024-02-26T14:34:35;8.90;99.90
7958;DHT22;4024;52.172;5.378;2024-02-26T14:37:01;8.90;99.90
7958;DHT22;4024;52.172;5.378;2024-02-26T14:39:27;9.10;99.90
7958;DHT22;4024;52.172;5.378;2024-02-26T14:41:53;9.00;99.90
7958;DHT22;4024;52.172;5.378;2024-02-26T14:44:18;9.00;99.90
7958;DHT22;4024;52.172;5.378;2024-02-26T14:46:44;9.00;99.90
7958;DHT22;4024;52.172;5.378;2024-02-26T14:49:09;9.00;99.90
7958;DHT22;4024;52.172;5.378;2024-02-26T14:51:36;9.00;99.90
7958;DHT22;4024;52.172;5.378;2024-02-26T14:54:02;9.00;99.90
7958;DHT22;4024;52.172;5.378;2024-02-26T14:56:28;9.00;99.90
7958;DHT22;4024;52.172;5.378;2024-02-26T14:58:53;9.10;99.90
7958;DHT22;4024;52.172;5.378;2024-02-26T15:01:19;9.00;99.90
7958;DHT22;4024;52.172;5.378;2024-02-26T15:03:44;9.20;99.90
7958;DHT22;4024;52.172;5.378;2024-02-26T15:06:10;9.00;99.90
7958;DHT22;4024;52.172;5.378;2024-02-26T15:08:36;9.00;99.90
7958;DHT22;4024;52.172;5.378;2024-02-26T15:11:02;9.00;99.90
7958;DHT22;4024;52.172;5.378;2024-02-26T15:13:28;9.00;99.90
7958;DHT22;4024;52.172;5.378;2024-02-26T15:15:54;9.00;99.90
7958;DHT22;4024;52.172;5.378;2024-02-26T15:18:20;9.00;99.90
7958;DHT22;4024;52.172;5.378;2024-02-26T15:20:45;9.00;99.90
7958;DHT22;4024;52.172;5.378;2024-02-26T15:23:11;9.10;99.90
7958;DHT22;4024;52.172;5.378;2024-02-26T15:25:38;9.10;99.90
7958;DHT22;4024;52.172;5.378;2024-02-26T15:28:04;9.10;99.90
7958;DHT22;4024;52.172;5.378;2024-02-26T15:30:30;9.10;99.90
7958;DHT22;4024;52.172;5.378;2024-02-26T15:32:57;9.10;99.90
7958;DHT22;4024;52.172;5.378;2024-02-26T15:35:22;9.10;99.90
7958;DHT22;4024;52.172;5.378;2024-02-26T15:37:48;9.10;99.90
7958;DHT22;4024;52.172;5.378;2024-02-26T15:40:14;9.10;99.90
7958;DHT22;4024;52.172;5.378;2024-02-26T15:42:39;9.10;99.90
7958;DHT22;4024;52.172;5.378;2024-02-26T15:45:05;9.10;99.90
7958;DHT22;4024;52.172;5.378;2024-02-26T15:47:32;9.10;99.90
7958;DHT22;4024;52.172;5.378;2024-02-26T15:49:57;9.00;99.90
7958;DHT22;4024;52.172;5.378;2024-02-26T15:52:23;9.00;99.90
7958;DHT22;4024;52.172;5.378;2024-02-26T15:54:48;9.00;99.90
7958;DHT22;4024;52.172;5.378;2024-02-26T15:57:14;9.10;99.90
7958;DHT22;4024;52.172;5.378;2024-02-26T15:59:41;9.00;99.90
7958;DHT22;4024;52.172;5.378;2024-02-26T16:02:07;9.00;99.90
7958;DHT22;4024;52.172;5.378;2024-02-26T16:04:33;9.00;99.90
7958;DHT22;4024;52.172;5.378;2024-02-26T16:07:02;9.00;99.90
7958;DHT22;4024;52.172;5.378;2024-02-26T16:09:34;9.00;99.90
7958;DHT22;4024;52.172;5.378;2024-02-26T16:12:06;8.90;99.90
7958;DHT22;4024;52.172;5.378;2024-02-26T16:14:48;8.90;99.90
7958;DHT22;4024;52.172;5.378;2024-02-26T16:17:30;8.80;99.90
7958;DHT22;4024;52.172;5.378;2024-02-26T16:20:03;8.90;99.90
7958;DHT22;4024;52.172;5.378;2024-02-26T16:22:35;8.90;99.90
7958;DHT22;4024;52.172;5.378;2024-02-26T16:25:05;8.80;99.90